Lake Carmel, New York
Current Conditions -  °F | °C
As of 10:53 AM on Sunday 21 Dec 2014 (Local Time) from KDXR Reporting Station
Light Snow Light Snow  
Wind Chill: 32°   Ceiling: 900
Heat Index: 32°   Visibility: 1.2mi
Dew Point: 27°   Wind: 0mph
Humidity: 82%   Direction: NA
Pressure: 30.3"   Gusts: NA
Location:  41.447°N, 73.7115°W
Report Text: KDXR 211553Z 00000KT 1 1/4SM -SN BKN009 OVC020 00/M03 A3030 RMK AO2 SLP266 P0000 T00001028
Loading
Personal Weather Stations






























Interactive Weather Map New forecast layout! Learn more

10-Day Weather Forecast

Advertisements
Track Severe Weather on mobile